Time;durP1;ratioP1;P1;durP2;ratioP2;P2;SDS_P1;SDS_P2;PMS_P1;PMS_P2;Temp;Humidity;BMP_temperature;BMP_pressure;BME280_temperature;BME280_humidity;BME280_pressure;Samples;Min_cycle;Max_cycle;Signal;HPM_P1;HPM_P2
2022/05/26 00:00:39;;;;;;;;;;;;;;;-140.72;100.00;52612.03;4929601;29;20021;-71
2022/05/26 00:03:05;;;;;;;;;;;;;;;-140.72;100.00;52614.06;4951365;29;19919;-71
2022/05/26 00:05:30;;;;;;;;;;;;;;;-140.72;100.00;52614.06;4955785;29;20474;-71
2022/05/26 00:07:55;;;;;;;;;;;;;;;-140.72;100.00;52642.47;4952970;29;20002;-71
2022/05/26 00:10:20;;;;;;;;;;;;;;;-140.72;100.00;52610.00;4938914;29;20003;-72
2022/05/26 00:12:46;;;;;;;;;;;;;;;-140.72;100.00;52626.25;4951216;28;19918;-71
2022/05/26 00:15:11;;;;;;;;;;;;;;;-140.72;100.00;52612.03;4936834;29;19919;-72
2022/05/26 00:17:37;;;;;;;;;;;;;;;-140.72;100.00;52632.34;4948995;29;19930;-71
2022/05/26 00:20:03;;;;;;;;;;;;;;;-140.72;100.00;52591.75;4932792;29;19918;-72
2022/05/26 00:22:28;;;;;;;;;;;;;;;-140.72;100.00;52593.78;4944084;29;19925;-71
2022/05/26 00:24:54;;;;;;;;;;;;;;;-140.72;100.00;52583.63;4948138;29;20350;-71
2022/05/26 00:27:19;;;;;;;;;;;;;;;-140.72;100.00;52618.13;4944320;29;19925;-72
2022/05/26 00:29:44;;;;;;;;;;;;;;;-140.72;100.00;52597.84;4949288;29;20659;-71
2022/05/26 00:35:12;;;;;;;;;;;;;;;-140.72;100.00;52632.34;4947137;29;19921;-71
2022/05/26 00:37:54;;;;;;;;;;;;;;;-140.72;100.00;52599.88;4945290;28;20276;-72
2022/05/26 00:40:19;;;;;;;;;;;;;;;-140.72;100.00;52573.50;4945048;29;19966;-71
2022/05/26 00:42:45;;;;;;;;;;;;;;;-140.72;100.00;52607.97;4949762;29;20692;-71
2022/05/26 00:45:10;;;;;;;;;;;;;;;-140.72;100.00;52557.25;4951573;29;19923;-71
2022/05/26 00:47:41;;;;;;;;;;;;;;;-140.72;100.00;52569.44;4949116;29;19919;-71
2022/05/26 00:50:21;;;;;;;;;;;;;;;-140.72;100.00;52624.22;4928272;29;19981;-71
2022/05/26 00:53:07;;;;;;;;;;;;;;;-140.72;100.00;52573.50;4947265;29;19918;-71
2022/05/26 00:55:38;;;;;;;;;;;;;;;-140.72;100.00;52614.06;4929864;29;20049;-71
2022/05/26 00:58:14;;;;;;;;;;;;;;;-140.72;100.00;52587.69;4937789;29;20343;-72
2022/05/26 01:00:39;;;;;;;;;;;;;;;-140.72;100.00;52573.50;4947955;29;19961;-71
2022/05/26 01:03:22;;;;;;;;;;;;;;;-140.72;100.00;52603.94;4953495;29;19926;-72
2022/05/26 01:06:00;;;;;;;;;;;;;;;-140.72;100.00;52612.03;4934163;28;19929;-71
2022/05/26 01:08:32;;;;;;;;;;;;;;;-140.72;100.00;52626.25;4936701;29;19919;-71
2022/05/26 01:10:58;;;;;;;;;;;;;;;-140.72;100.00;52565.38;4935627;29;19919;-71
2022/05/26 01:13:26;;;;;;;;;;;;;;;-140.72;100.00;52646.53;4930135;29;19938;-72
2022/05/26 01:16:00;;;;;;;;;;;;;;;-140.72;100.00;52603.94;4947692;29;20638;-71
2022/05/26 01:18:37;;;;;;;;;;;;;;;-140.72;100.00;52616.09;4944419;29;20255;-72
2022/05/26 01:21:09;;;;;;;;;;;;;;;-140.72;100.00;52618.13;4949759;29;20322;-71
2022/05/26 01:23:37;;;;;;;;;;;;;;;-140.72;100.00;52642.47;4948117;29;20272;-71
2022/05/26 01:26:05;;;;;;;;;;;;;;;-140.72;100.00;52601.91;4947452;29;19919;-72
2022/05/26 01:28:48;;;;;;;;;;;;;;;-140.72;100.00;52603.94;4938601;29;19918;-72
2022/05/26 01:31:32;;;;;;;;;;;;;;;-140.72;100.00;52587.69;4955931;29;19940;-71
2022/05/26 01:33:57;;;;;;;;;;;;;;;-140.72;100.00;52610.00;4936673;29;19919;-71
2022/05/26 01:36:26;;;;;;;;;;;;;;;-140.72;100.00;52614.06;4935005;28;20020;-71
2022/05/26 01:38:54;;;;;;;;;;;;;;;-140.72;100.00;52587.69;4947562;29;20022;-71
2022/05/26 01:41:37;;;;;;;;;;;;;;;-140.72;100.00;52624.22;4936545;29;20386;-71
2022/05/26 01:44:26;;;;;;;;;;;;;;;-140.72;100.00;52603.94;4955174;29;19922;-71
2022/05/26 01:46:54;;;;;;;;;;;;;;;-140.72;100.00;52591.75;4955909;29;19919;-72
2022/05/26 01:49:29;;;;;;;;;;;;;;;-140.72;100.00;52601.91;4955393;29;20398;-71
2022/05/26 01:51:54;;;;;;;;;;;;;;;-140.72;100.00;52581.59;4936035;29;19970;-71
2022/05/26 01:54:25;;;;;;;;;;;;;;;-140.72;100.00;52636.38;4936330;29;19918;-71
2022/05/26 01:57:12;;;;;;;;;;;;;;;-140.72;100.00;52626.25;4946671;29;19922;-71
2022/05/26 01:59:41;;;;;;;;;;;;;;;-140.72;100.00;52618.13;4953391;29;19918;-71
2022/05/26 02:02:11;;;;;;;;;;;;;;;-140.72;100.00;52605.94;4955064;29;19919;-71
2022/05/26 02:04:39;;;;;;;;;;;;;;;-140.72;100.00;52593.78;4955071;29;19926;-71
2022/05/26 02:07:19;;;;;;;;;;;;;;;-140.72;100.00;52634.38;4937875;29;19933;-71
2022/05/26 02:09:45;;;;;;;;;;;;;;;-140.72;100.00;52595.81;4938354;29;20013;-72
2022/05/26 02:12:29;;;;;;;;;;;;;;;-140.72;100.00;52583.63;4955390;29;19954;-71
2022/05/26 02:14:58;;;;;;;;;;;;;;;-140.72;100.00;52622.19;4956306;29;20454;-71
2022/05/26 02:17:29;;;;;;;;;;;;;;;-140.72;100.00;52605.94;4957682;29;20021;-71
2022/05/26 02:19:59;;;;;;;;;;;;;;;-140.72;100.00;52624.22;4958096;29;19925;-72
2022/05/26 02:22:51;;;;;;;;;;;;;;;-140.72;100.00;52607.97;4957964;29;20013;-71
2022/05/26 02:25:18;;;;;;;;;;;;;;;-140.72;100.00;52648.56;4936188;29;20390;-72
2022/05/26 02:27:44;;;;;;;;;;;;;;;-140.72;100.00;52650.59;4955074;29;19922;-71
2022/05/26 02:30:12;;;;;;;;;;;;;;;-140.72;100.00;52610.00;4955331;29;19978;-72
2022/05/26 02:37:57;;;;;;;;;;;;;;;-140.72;100.00;52618.13;5228221;23;19952;-70
2022/05/26 02:40:22;;;;;;;;;;;;;;;-140.72;100.00;52599.88;4962853;28;19937;-69
2022/05/26 02:42:50;;;;;;;;;;;;;;;-140.72;100.00;52634.38;4980833;28;19925;-69
2022/05/26 02:45:19;;;;;;;;;;;;;;;-140.72;100.00;52585.66;4968421;28;19922;-69
2022/05/26 02:48:02;;;;;;;;;;;;;;;-140.72;100.00;52626.25;4984771;28;19930;-69
2022/05/26 02:50:38;;;;;;;;;;;;;;;-140.72;100.00;52628.28;4966527;28;19925;-70
2022/05/26 02:53:03;;;;;;;;;;;;;;;-140.72;100.00;52569.44;4975413;28;19921;-70
2022/05/26 02:55:40;;;;;;;;;;;;;;;-140.72;100.00;52581.59;4971761;28;20031;-70
2022/05/26 02:58:21;;;;;;;;;;;;;;;-140.72;100.00;52581.59;4966434;28;20440;-69
2022/05/26 03:01:04;;;;;;;;;;;;;;;-140.72;100.00;52593.78;4963689;28;20020;-69
2022/05/26 03:03:29;;;;;;;;;;;;;;;-140.72;100.00;52605.94;4982592;28;19918;-69
2022/05/26 03:06:13;;;;;;;;;;;;;;;-140.72;100.00;52636.38;4988813;28;19973;-69
2022/05/26 03:08:39;;;;;;;;;;;;;;;-140.72;100.00;52593.78;4965834;28;19918;-70
2022/05/26 03:11:10;;;;;;;;;;;;;;;-140.72;100.00;52597.84;4990551;28;20016;-69
2022/05/26 03:13:35;;;;;;;;;;;;;;;-140.72;100.00;52595.81;4953526;28;19973;-68
2022/05/26 03:16:01;;;;;;;;;;;;;;;-140.72;100.00;52601.91;4992487;28;19980;-69
2022/05/26 03:18:26;;;;;;;;;;;;;;;-140.72;100.00;52597.84;4998543;28;19917;-69
2022/05/26 03:20:51;;;;;;;;;;;;;;;-140.72;100.00;52597.84;4970871;28;20004;-69
2022/05/26 03:23:17;;;;;;;;;;;;;;;-140.72;100.00;52589.72;4995009;28;19918;-69
2022/05/26 03:25:45;;;;;;;;;;;;;;;-140.72;100.00;52618.13;4998135;28;19926;-67
2022/05/26 03:28:11;;;;;;;;;;;;;;;-140.72;100.00;52599.88;4991728;28;20009;-68
2022/05/26 03:30:37;;;;;;;;;;;;;;;-140.72;100.00;52607.97;4969683;28;20012;-69
2022/05/26 03:33:02;;;;;;;;;;;;;;;-140.72;100.00;52607.97;4993589;28;19918;-69
2022/05/26 03:41:13;;;;;;;;;;;;;;;-140.72;100.00;52618.13;4952040;29;19919;-69
2022/05/26 03:43:41;;;;;;;;;;;;;;;-140.72;100.00;52583.63;4986735;28;19918;-69
2022/05/26 03:46:06;;;;;;;;;;;;;;;-140.72;100.00;52650.59;4988374;28;20358;-70
2022/05/26 03:48:31;;;;;;;;;;;;;;;-140.72;100.00;52634.38;4988346;28;20037;-70
2022/05/26 03:50:58;;;;;;;;;;;;;;;-140.72;100.00;52652.63;4987714;28;20017;-70
2022/05/26 03:53:23;;;;;;;;;;;;;;;-140.72;100.00;52599.88;4974109;28;19917;-70
2022/05/26 03:55:48;;;;;;;;;;;;;;;-140.72;100.00;52642.47;4966914;28;19922;-70
2022/05/26 03:58:14;;;;;;;;;;;;;;;-140.72;100.00;52607.97;4987196;28;19922;-70
2022/05/26 04:00:39;;;;;;;;;;;;;;;-140.72;100.00;52618.13;4989408;28;19918;-70
2022/05/26 04:03:04;;;;;;;;;;;;;;;-140.72;100.00;52634.38;4987796;28;19918;-69
2022/05/26 04:05:30;;;;;;;;;;;;;;;-140.72;100.00;52630.31;4987136;28;20382;-70
2022/05/26 04:07:55;;;;;;;;;;;;;;;-140.72;100.00;52642.47;4969961;28;19980;-71
2022/05/26 04:10:21;;;;;;;;;;;;;;;-140.72;100.00;52610.00;4987263;28;19925;-68
2022/05/26 04:12:46;;;;;;;;;;;;;;;-140.72;100.00;52612.03;4969395;28;21552;-70
2022/05/26 04:15:13;;;;;;;;;;;;;;;-140.72;100.00;52618.13;4980045;28;19922;-69
2022/05/26 04:17:38;;;;;;;;;;;;;;;-140.72;100.00;52670.88;4985872;28;19918;-68
2022/05/26 04:20:05;;;;;;;;;;;;;;;-140.72;100.00;52603.94;4963485;28;20335;-69
2022/05/26 04:22:30;;;;;;;;;;;;;;;-140.72;100.00;52672.91;4964676;28;20025;-68
2022/05/26 04:24:56;;;;;;;;;;;;;;;-140.72;100.00;52610.00;4979851;28;19962;-69
2022/05/26 04:27:23;;;;;;;;;;;;;;;-140.72;100.00;52624.22;4973721;28;19918;-70
2022/05/26 04:29:48;;;;;;;;;;;;;;;-140.72;100.00;52626.25;4975083;28;19926;-69
2022/05/26 04:32:14;;;;;;;;;;;;;;;-140.72;100.00;52638.41;4977557;28;20356;-68
2022/05/26 04:34:39;;;;;;;;;;;;;;;-140.72;100.00;52654.66;4969481;28;20254;-69
2022/05/26 04:37:05;;;;;;;;;;;;;;;-140.72;100.00;52624.22;4974401;28;19922;-69
2022/05/26 04:39:31;;;;;;;;;;;;;;;-140.72;100.00;52605.94;4978401;28;19922;-69
2022/05/26 04:42:03;;;;;;;;;;;;;;;-140.72;100.00;52612.03;4971563;28;19925;-68
2022/05/26 04:44:34;;;;;;;;;;;;;;;-140.72;100.00;52610.00;4964477;28;19918;-69
2022/05/26 04:47:00;;;;;;;;;;;;;;;-140.72;100.00;52616.09;4969980;28;19919;-71
2022/05/26 04:49:25;;;;;;;;;;;;;;;-140.72;100.00;52616.09;4962426;28;19973;-69
2022/05/26 04:51:50;;;;;;;;;;;;;;;-140.72;100.00;52640.44;4973480;28;19959;-69
2022/05/26 04:54:16;;;;;;;;;;;;;;;-140.72;100.00;52646.53;4976001;28;19926;-72
2022/05/26 04:56:41;;;;;;;;;;;;;;;-140.72;100.00;52652.63;4974373;28;20422;-68
2022/05/26 04:59:06;;;;;;;;;;;;;;;-140.72;100.00;52628.28;4974853;28;19918;-69
2022/05/26 05:01:32;;;;;;;;;;;;;;;-140.72;100.00;52591.75;4961811;28;20029;-70
2022/05/26 05:03:57;;;;;;;;;;;;;;;-140.72;100.00;52632.34;4972104;28;19953;-69
2022/05/26 05:06:22;;;;;;;;;;;;;;;-140.72;100.00;52595.81;4960768;28;19921;-70
2022/05/26 05:08:47;;;;;;;;;;;;;;;-140.72;100.00;52581.59;4963817;28;19932;-69
2022/05/26 05:11:13;;;;;;;;;;;;;;;-140.72;100.00;52616.09;4964390;28;19977;-70
2022/05/26 05:13:38;;;;;;;;;;;;;;;-140.72;100.00;52605.94;4972761;28;19919;-69
2022/05/26 05:16:06;;;;;;;;;;;;;;;-140.72;100.00;52630.31;4970697;28;20392;-70
2022/05/26 05:18:32;;;;;;;;;;;;;;;-140.72;100.00;52622.19;4968321;28;19922;-70
2022/05/26 05:21:02;;;;;;;;;;;;;;;-140.72;100.00;52626.25;4965269;28;19919;-70
2022/05/26 05:23:27;;;;;;;;;;;;;;;-140.72;100.00;52595.81;4957867;28;20336;-69
2022/05/26 05:25:53;;;;;;;;;;;;;;;-140.72;100.00;52630.31;4959200;28;19918;-69
2022/05/26 05:28:21;;;;;;;;;;;;;;;-140.72;100.00;52634.38;4963144;28;20077;-69
2022/05/26 05:30:49;;;;;;;;;;;;;;;-140.72;100.00;52599.88;4970119;28;19922;-70
2022/05/26 05:33:17;;;;;;;;;;;;;;;-140.72;100.00;52612.03;4954112;28;20020;-70
2022/05/26 05:35:42;;;;;;;;;;;;;;;-140.72;100.00;52583.63;4970874;28;19941;-70
2022/05/26 05:38:07;;;;;;;;;;;;;;;-140.72;100.00;52622.19;4973171;28;19923;-71
2022/05/26 05:40:34;;;;;;;;;;;;;;;-140.72;100.00;52610.00;4973292;28;19922;-70
2022/05/26 05:43:00;;;;;;;;;;;;;;;-140.72;100.00;52583.63;4965860;28;19918;-71
2022/05/26 05:45:25;;;;;;;;;;;;;;;-140.72;100.00;52583.63;4962644;28;19919;-69
2022/05/26 05:47:50;;;;;;;;;;;;;;;-140.72;100.00;52577.53;4970656;28;19925;-69
2022/05/26 05:50:15;;;;;;;;;;;;;;;-140.72;100.00;52555.22;4966384;28;19930;-68
2022/05/26 05:52:40;;;;;;;;;;;;;;;-140.72;100.00;52591.75;4963344;28;19918;-69
2022/05/26 05:55:06;;;;;;;;;;;;;;;-140.72;100.00;52585.66;4960977;28;19974;-72
2022/05/26 05:57:31;;;;;;;;;;;;;;;-140.72;100.00;52597.84;4967628;28;19948;-70
2022/05/26 05:59:56;;;;;;;;;;;;;;;-140.72;100.00;52612.03;4969633;28;19984;-70
2022/05/26 06:02:22;;;;;;;;;;;;;;;-140.72;100.00;52587.69;4963523;28;19994;-69
2022/05/26 06:04:47;;;;;;;;;;;;;;;-140.72;100.00;52534.94;4967822;28;19926;-69
2022/05/26 06:07:16;;;;;;;;;;;;;;;-140.72;100.00;52567.41;4970730;28;19993;-70
2022/05/26 06:09:42;;;;;;;;;;;;;;;-140.72;100.00;52569.44;4977236;28;19937;-70
2022/05/26 06:12:08;;;;;;;;;;;;;;;-140.72;100.00;52551.16;4979540;28;19918;-71
2022/05/26 06:14:33;;;;;;;;;;;;;;;-140.72;100.00;52577.53;4971390;28;19918;-68
2022/05/26 06:16:59;;;;;;;;;;;;;;;-140.72;100.00;52567.41;4968730;28;19995;-69
2022/05/26 06:19:24;;;;;;;;;;;;;;;-140.72;100.00;52573.50;4964281;28;19927;-69
2022/05/26 06:21:49;;;;;;;;;;;;;;;-140.72;100.00;52589.72;4963005;28;19928;-69
2022/05/26 06:24:14;;;;;;;;;;;;;;;-140.72;100.00;52567.41;4960808;28;19996;-69
2022/05/26 06:26:39;;;;;;;;;;;;;;;-140.72;100.00;52536.97;4966739;28;20354;-70
2022/05/26 06:37:17;;;;;;;;;;;;;;;-140.72;100.00;52583.63;4969385;28;19944;-70
2022/05/26 06:39:42;;;;;;;;;;;;;;;-140.72;100.00;52571.47;4972277;28;19926;-69
2022/05/26 06:42:09;;;;;;;;;;;;;;;-140.72;100.00;52571.47;4959055;28;19918;-70
2022/05/26 06:44:42;;;;;;;;;;;;;;;-140.72;100.00;52543.03;4972841;28;19918;-70
2022/05/26 06:47:10;;;;;;;;;;;;;;;-140.72;100.00;52569.44;4972277;28;19965;-70
2022/05/26 06:49:37;;;;;;;;;;;;;;;-140.72;100.00;52577.53;4956591;28;19950;-70
2022/05/26 06:52:03;;;;;;;;;;;;;;;-140.72;100.00;52532.91;4974243;28;19965;-70
2022/05/26 06:54:31;;;;;;;;;;;;;;;-140.72;100.00;52534.94;4972242;28;19926;-70
2022/05/26 06:56:57;;;;;;;;;;;;;;;-140.72;100.00;52565.38;4967042;28;19965;-70
2022/05/26 06:59:22;;;;;;;;;;;;;;;-140.72;100.00;52512.59;4966015;28;19957;-70
2022/05/26 07:01:47;;;;;;;;;;;;;;;-140.72;100.00;52520.72;4969533;28;20015;-70
2022/05/26 07:04:12;;;;;;;;;;;;;;;-140.72;100.00;52528.84;4966569;28;20491;-70
2022/05/26 07:06:37;;;;;;;;;;;;;;;-140.72;100.00;52553.19;4971029;28;19934;-71
2022/05/26 07:09:02;;;;;;;;;;;;;;;-140.72;100.00;52526.81;4957312;28;20026;-69
2022/05/26 07:11:28;;;;;;;;;;;;;;;-140.72;100.00;52522.75;4967697;28;19918;-69
2022/05/26 07:13:53;;;;;;;;;;;;;;;-140.72;100.00;52549.13;4967954;28;19918;-69
2022/05/26 07:16:19;;;;;;;;;;;;;;;-140.72;100.00;52518.69;4967519;28;19954;-69
2022/05/26 07:18:45;;;;;;;;;;;;;;;-140.72;100.00;52532.91;4953757;28;19929;-70
2022/05/26 07:21:11;;;;;;;;;;;;;;;-140.72;100.00;52520.72;4951494;28;20000;-70
2022/05/26 07:23:37;;;;;;;;;;;;;;;-140.72;100.00;52496.38;4974301;28;19980;-69
2022/05/26 07:26:06;;;;;;;;;;;;;;;-140.72;100.00;52526.81;4960796;28;20305;-69
2022/05/26 07:28:32;;;;;;;;;;;;;;;-140.72;100.00;52512.59;4982644;28;19944;-70
2022/05/26 07:30:57;;;;;;;;;;;;;;;-140.72;100.00;52545.06;4986340;28;20262;-69
2022/05/26 07:33:23;;;;;;;;;;;;;;;-140.72;100.00;52528.84;4994383;28;19925;-69
2022/05/26 07:35:48;;;;;;;;;;;;;;;-140.72;100.00;52520.72;4987224;28;19919;-74
2022/05/26 07:43:41;;;;;;;;;;;;;;;-140.72;100.00;52524.78;4981733;28;19925;-74
2022/05/26 07:46:08;;;;;;;;;;;;;;;-140.72;100.00;52500.44;4994108;28;19918;-73
2022/05/26 07:48:33;;;;;;;;;;;;;;;-140.72;100.00;52474.06;4975215;28;19926;-74
2022/05/26 07:50:58;;;;;;;;;;;;;;;-140.72;100.00;52520.72;4983900;28;19918;-72
2022/05/26 07:53:23;;;;;;;;;;;;;;;-140.72;100.00;52496.38;4989209;28;19964;-70
2022/05/26 07:55:49;;;;;;;;;;;;;;;-140.72;100.00;52480.16;4994969;28;19941;-72
2022/05/26 07:58:14;;;;;;;;;;;;;;;-140.72;100.00;52463.91;4991082;28;19965;-72
2022/05/26 08:00:40;;;;;;;;;;;;;;;-140.72;100.00;52474.06;4965747;28;20492;-71
2022/05/26 08:03:05;;;;;;;;;;;;;;;-140.72;100.00;52472.03;4971378;28;19993;-72
2022/05/26 08:05:31;;;;;;;;;;;;;;;-140.72;100.00;52490.28;4982109;28;19921;-73
2022/05/26 08:07:56;;;;;;;;;;;;;;;-140.72;100.00;52486.22;4981611;28;19972;-69
2022/05/26 08:10:22;;;;;;;;;;;;;;;-140.72;100.00;52417.25;4983669;28;19926;-70
2022/05/26 08:12:47;;;;;;;;;;;;;;;-140.72;100.00;52476.09;4964696;28;20716;-70
2022/05/26 08:15:12;;;;;;;;;;;;;;;-140.72;100.00;52463.91;4978028;28;20689;-70
2022/05/26 08:17:38;;;;;;;;;;;;;;;-140.72;100.00;52463.91;4995189;28;19976;-70
2022/05/26 08:20:04;;;;;;;;;;;;;;;-140.72;100.00;52425.34;4997146;28;19918;-70
2022/05/26 08:22:29;;;;;;;;;;;;;;;-140.72;100.00;52427.38;4972970;28;19921;-70
2022/05/26 08:24:56;;;;;;;;;;;;;;;-140.72;100.00;52401.00;4987560;28;19918;-71
2022/05/26 08:27:21;;;;;;;;;;;;;;;-140.72;100.00;52435.50;4986850;28;19933;-70
2022/05/26 08:29:46;;;;;;;;;;;;;;;-140.72;100.00;52419.28;4981193;28;20400;-70
2022/05/26 08:32:13;;;;;;;;;;;;;;;-140.72;100.00;52453.75;4986604;28;20062;-70
2022/05/26 08:34:39;;;;;;;;;;;;;;;-140.72;100.00;52425.34;4969538;28;20362;-70
2022/05/26 08:37:04;;;;;;;;;;;;;;;-140.72;100.00;52401.00;4987942;28;19928;-70
2022/05/26 08:39:32;;;;;;;;;;;;;;;-140.72;100.00;52407.09;4981344;28;20010;-70
2022/05/26 08:41:58;;;;;;;;;;;;;;;-140.72;100.00;52407.09;4987913;28;20008;-70
2022/05/26 08:44:28;;;;;;;;;;;;;;;-140.72;100.00;52403.03;4966646;28;20032;-70
2022/05/26 08:47:01;;;;;;;;;;;;;;;-140.72;100.00;52370.56;4968983;28;19919;-70
2022/05/26 08:49:29;;;;;;;;;;;;;;;-140.72;100.00;52380.72;4979551;28;19918;-70
2022/05/26 08:52:00;;;;;;;;;;;;;;;-140.72;100.00;52289.41;4987106;28;19925;-70
2022/05/26 08:54:36;;;;;;;;;;;;;;;-140.72;100.00;52429.41;4990095;28;19918;-69
2022/05/26 08:57:02;;;;;;;;;;;;;;;-140.72;100.00;52380.72;4983370;28;19918;-70
2022/05/26 08:59:39;;;;;;;;;;;;;;;-140.72;100.00;52405.06;4966262;28;19926;-70
2022/05/26 09:02:04;;;;;;;;;;;;;;;-140.72;100.00;52352.31;4981176;28;19922;-70
2022/05/26 09:04:29;;;;;;;;;;;;;;;-140.72;100.00;52340.13;4990806;28;19926;-70
2022/05/26 09:12:56;;;;;;;;;;;;;;;-140.72;100.00;52413.19;4990143;28;19925;-70
2022/05/26 09:15:22;;;;;;;;;;;;;;;-140.72;100.00;52346.22;4959497;28;19929;-69
2022/05/26 09:17:47;;;;;;;;;;;;;;;-140.72;100.00;52325.94;4980003;28;20354;-69
2022/05/26 09:20:28;;;;;;;;;;;;;;;-140.72;100.00;52311.72;4982971;28;20350;-69
2022/05/26 09:22:53;;;;;;;;;;;;;;;-140.72;100.00;52309.69;4965828;28;19926;-71
2022/05/26 09:25:27;;;;;;;;;;;;;;;-140.72;100.00;52417.25;4992409;28;20306;-70
2022/05/26 09:27:52;;;;;;;;;;;;;;;-140.72;100.00;52332.03;4986207;28;19918;-70
2022/05/26 09:30:25;;;;;;;;;;;;;;;-140.72;100.00;52390.84;4971623;28;19925;-71
2022/05/26 09:32:51;;;;;;;;;;;;;;;-140.72;100.00;52301.59;4986476;28;20378;-69
2022/05/26 09:35:19;;;;;;;;;;;;;;;-140.72;100.00;52338.09;4978962;28;19928;-70
2022/05/26 09:37:46;;;;;;;;;;;;;;;-140.72;100.00;52256.94;4980691;28;20017;-69
2022/05/26 09:40:16;;;;;;;;;;;;;;;-140.72;100.00;52323.91;4966281;28;19922;-70
2022/05/26 09:42:42;;;;;;;;;;;;;;;-140.72;100.00;52360.44;4965586;28;19919;-69
2022/05/26 09:45:11;;;;;;;;;;;;;;;-140.72;100.00;52401.00;4982633;28;19925;-70
2022/05/26 09:47:58;;;;;;;;;;;;;;;-140.72;100.00;52423.31;4980366;28;20369;-69
2022/05/26 09:50:29;;;;;;;;;;;;;;;-140.72;100.00;52370.56;4967459;28;19941;-71
2022/05/26 09:52:54;;;;;;;;;;;;;;;-140.72;100.00;52297.53;4967713;28;19968;-70
2022/05/26 09:55:24;;;;;;;;;;;;;;;-140.72;100.00;52271.16;4967667;28;20388;-70
2022/05/26 09:57:49;;;;;;;;;;;;;;;-140.72;100.00;52321.88;4967718;28;20444;-70
2022/05/26 10:00:30;;;;;;;;;;;;;;;-140.72;100.00;52289.41;4984852;28;19926;-70
2022/05/26 10:02:57;;;;;;;;;;;;;;;-140.72;100.00;52202.16;4988646;28;19918;-70
2022/05/26 10:05:25;;;;;;;;;;;;;;;-140.72;100.00;52222.44;4978713;28;19925;-70
2022/05/26 10:07:59;;;;;;;;;;;;;;;-140.72;100.00;52269.13;4967948;28;19930;-69
2022/05/26 10:10:35;;;;;;;;;;;;;;;-140.72;100.00;52315.78;4979542;28;19918;-69
2022/05/26 10:13:08;;;;;;;;;;;;;;;-140.72;100.00;52313.75;4978071;28;19922;-70
2022/05/26 10:15:45;;;;;;;;;;;;;;;-140.72;100.00;52232.59;4984317;28;19918;-70
2022/05/26 10:18:13;;;;;;;;;;;;;;;-140.72;100.00;52256.94;4979554;28;19961;-70
2022/05/26 10:20:48;;;;;;;;;;;;;;;-140.72;100.00;52325.94;4982222;28;19918;-70
2022/05/26 10:23:20;;;;;;;;;;;;;;;-140.72;100.00;52342.16;4967473;28;20020;-69
2022/05/26 10:26:04;;;;;;;;;;;;;;;-140.72;100.00;52346.22;4985912;28;19944;-70
2022/05/26 10:28:32;;;;;;;;;;;;;;;-140.72;100.00;52307.66;4985211;28;19929;-71
2022/05/26 10:31:03;;;;;;;;;;;;;;;-140.72;100.00;52214.34;4980808;28;20056;-71
2022/05/26 10:33:28;;;;;;;;;;;;;;;-140.72;100.00;52230.56;4961608;28;19994;-71
2022/05/26 10:35:54;;;;;;;;;;;;;;;-140.72;100.00;52323.91;4985764;28;20382;-70
2022/05/26 10:38:25;;;;;;;;;;;;;;;-140.72;100.00;52330.00;4976132;28;20012;-70
2022/05/26 10:40:50;;;;;;;;;;;;;;;-140.72;100.00;52323.91;4981882;28;19922;-70
2022/05/26 10:43:23;;;;;;;;;;;;;;;-140.72;100.00;52327.97;4981437;28;19932;-69
2022/05/26 10:45:49;;;;;;;;;;;;;;;-140.72;100.00;52386.81;4985195;28;19968;-69
2022/05/26 10:48:24;;;;;;;;;;;;;;;-140.72;100.00;52293.47;4962051;28;19933;-70
2022/05/26 10:50:58;;;;;;;;;;;;;;;-140.72;100.00;52360.44;4984724;28;19981;-70
2022/05/26 10:53:33;;;;;;;;;;;;;;;-140.72;100.00;52321.88;4981978;28;19961;-70
2022/05/26 10:56:21;;;;;;;;;;;;;;;-140.72;100.00;52413.19;4961633;28;19918;-71
2022/05/26 10:58:49;;;;;;;;;;;;;;;-140.72;100.00;52405.06;4980858;28;19922;-70
2022/05/26 11:01:34;;;;;;;;;;;;;;;-140.72;100.00;52240.72;4985012;28;20028;-69
2022/05/26 11:04:13;;;;;;;;;;;;;;;-140.72;100.00;52250.84;4961841;28;20242;-69
2022/05/26 11:06:41;;;;;;;;;;;;;;;-140.72;100.00;52129.13;4978696;28;19921;-70
2022/05/26 11:09:11;;;;;;;;;;;;;;;-140.72;100.00;52189.97;4962793;28;20401;-70
2022/05/26 11:11:38;;;;;;;;;;;;;;;-140.72;100.00;52234.63;4982701;28;19918;-69
2022/05/26 11:14:07;;;;;;;;;;;;;;;-140.72;100.00;52224.47;4986287;28;19971;-70
2022/05/26 11:19:39;;;;;;;;;;;;;;;-140.72;100.00;52279.25;4986294;28;20293;-69
2022/05/26 11:22:05;;;;;;;;;;;;;;;-140.72;100.00;52358.41;4959109;28;20404;-69
2022/05/26 11:24:31;;;;;;;;;;;;;;;-140.72;100.00;52323.91;4964258;28;20021;-69
2022/05/26 11:26:56;;;;;;;;;;;;;;;-140.72;100.00;52362.44;4988482;28;19918;-70
2022/05/26 11:29:44;;;;;;;;;;;;;;;-140.72;100.00;52378.69;4985492;28;20440;-69
2022/05/26 11:37:42;;;;;;;;;;;;;;;-140.72;100.00;52228.53;4982411;28;19930;-69
2022/05/26 11:40:11;;;;;;;;;;;;;;;-140.72;100.00;52147.38;4994276;28;19918;-69
2022/05/26 11:42:39;;;;;;;;;;;;;;;-140.72;100.00;52133.16;4968453;28;19965;-69
2022/05/26 11:45:12;;;;;;;;;;;;;;;-140.72;100.00;52189.97;4987872;28;19925;-69
2022/05/26 11:47:54;;;;;;;;;;;;;;;-140.72;100.00;52179.84;4964879;28;20429;-70
2022/05/26 11:50:23;;;;;;;;;;;;;;;-140.72;100.00;52102.75;4981099;28;20526;-70
2022/05/26 11:52:54;;;;;;;;;;;;;;;-140.72;100.00;52267.09;4985046;28;19997;-69
2022/05/26 11:55:38;;;;;;;;;;;;;;;-140.72;100.00;52261.00;4963729;28;19918;-69
2022/05/26 11:58:15;;;;;;;;;;;;;;;-140.72;100.00;52368.53;4981697;28;19918;-69
2022/05/26 12:00:43;;;;;;;;;;;;;;;-140.72;100.00;52348.25;4985911;28;19922;-69
2022/05/26 12:03:23;;;;;;;;;;;;;;;-140.72;100.00;52332.03;4963411;28;19927;-69
2022/05/26 12:06:08;;;;;;;;;;;;;;;-140.72;100.00;52325.94;4981205;28;20756;-69
2022/05/26 12:08:45;;;;;;;;;;;;;;;-140.72;100.00;52323.91;4984840;28;19996;-69
2022/05/26 12:11:12;;;;;;;;;;;;;;;-140.72;100.00;52307.66;4987168;28;19992;-69
2022/05/26 12:13:41;;;;;;;;;;;;;;;-140.72;100.00;52348.25;4989734;28;19922;-69
2022/05/26 12:16:15;;;;;;;;;;;;;;;-140.72;100.00;52344.19;4965597;28;19922;-70
2022/05/26 12:18:49;;;;;;;;;;;;;;;-140.72;100.00;52366.50;4972746;28;19929;-69
2022/05/26 12:21:27;;;;;;;;;;;;;;;-140.72;100.00;52334.03;4969856;28;19918;-69
2022/05/26 12:23:52;;;;;;;;;;;;;;;-140.72;100.00;52354.34;4980604;28;20012;-69
2022/05/26 12:26:25;;;;;;;;;;;;;;;-140.72;100.00;52372.59;4987340;28;19980;-69
2022/05/26 12:28:51;;;;;;;;;;;;;;;-140.72;100.00;52258.97;4984342;28;20350;-68
2022/05/26 12:31:16;;;;;;;;;;;;;;;-140.72;100.00;52360.44;4987526;28;19927;-69
2022/05/26 12:33:41;;;;;;;;;;;;;;;-140.72;100.00;52303.59;4991681;28;19918;-69
2022/05/26 12:36:20;;;;;;;;;;;;;;;-140.72;100.00;52265.06;4983593;28;19965;-69
2022/05/26 12:39:01;;;;;;;;;;;;;;;-140.72;100.00;52364.47;4989542;28;20278;-69
2022/05/26 12:41:45;;;;;;;;;;;;;;;-140.72;100.00;52301.59;4965919;28;19918;-70
2022/05/26 12:44:23;;;;;;;;;;;;;;;-140.72;100.00;52244.78;4970784;28;19922;-70
2022/05/26 12:47:04;;;;;;;;;;;;;;;-140.72;100.00;52104.75;4983074;28;20571;-70
2022/05/26 12:49:48;;;;;;;;;;;;;;;-140.72;100.00;52169.69;4991649;28;19918;-71
2022/05/26 12:52:19;;;;;;;;;;;;;;;-140.72;100.00;52234.63;4984613;28;20491;-71
2022/05/26 12:55:07;;;;;;;;;;;;;;;-140.72;100.00;52234.63;4984657;28;20382;-70
2022/05/26 12:57:36;;;;;;;;;;;;;;;-140.72;100.00;52145.34;4956994;28;19918;-70
2022/05/26 13:00:21;;;;;;;;;;;;;;;-140.72;100.00;52123.03;4967684;28;19976;-70
2022/05/26 13:02:49;;;;;;;;;;;;;;;-140.72;100.00;52088.53;4966445;28;19933;-71
2022/05/26 13:05:14;;;;;;;;;;;;;;;-140.72;100.00;52108.81;4986543;28;19921;-69
2022/05/26 13:07:39;;;;;;;;;;;;;;;-140.72;100.00;52187.97;4991468;28;20501;-70
2022/05/26 13:10:05;;;;;;;;;;;;;;;-140.72;100.00;52248.81;4981679;28;19918;-70